Time;durP1;ratioP1;P1;durP2;ratioP2;P2;SDS_P1;SDS_P2;PMS_P1;PMS_P2;Temp;Humidity;BMP_temperature;BMP_pressure;BME280_temperature;BME280_humidity;BME280_pressure;Samples;Min_cycle;Max_cycle;Signal;HPM_P1;HPM_P2
2023/05/15 00:02:05;;;;;;;16.67;9.32;;;;;;;12.78;nan;-24173.81;4978960;28;20243;-69
2023/05/15 00:04:31;;;;;;;15.07;8.82;;;;;;;12.51;nan;-24166.22;4975943;28;20181;-69
2023/05/15 00:06:56;;;;;;;16.45;9.55;;;;;;;12.70;nan;-24171.56;4975165;28;20209;-69
2023/05/15 00:09:22;;;;;;;17.08;9.40;;;;;;;12.64;nan;-24170.03;4980681;28;20184;-69
2023/05/15 00:11:47;;;;;;;16.63;9.05;;;;;;;12.43;nan;-24163.97;4978004;28;20286;-71
2023/05/15 00:14:13;;;;;;;19.42;8.65;;;;;;;12.73;nan;-24172.56;4976032;28;20232;-70
2023/05/15 00:16:38;;;;;;;14.27;8.82;;;;;;;12.33;nan;-24161.44;4974550;28;20667;-69
2023/05/15 00:19:04;;;;;;;14.18;8.23;;;;;;;12.27;nan;-24159.63;4990219;28;20653;-69
2023/05/15 00:21:29;;;;;;;13.25;8.30;;;;;;;12.49;nan;-24165.66;4975942;28;20240;-69
2023/05/15 00:23:57;;;;;;;15.05;9.07;;;;;;;12.18;nan;-24157.22;4975894;28;20174;-70
2023/05/15 00:26:23;;;;;;;13.52;8.93;;;;;;;12.16;nan;-24156.66;4976032;28;20195;-69
2023/05/15 00:28:48;;;;;;;13.20;8.95;;;;;;;12.50;nan;-24165.94;4975690;28;20593;-69
2023/05/15 00:31:13;;;;;;;17.13;9.38;;;;;;;12.19;nan;-24157.38;4975934;28;20641;-70
2023/05/15 00:33:39;;;;;;;13.77;8.93;;;;;;;12.40;nan;-24163.28;4975097;28;20212;-68
2023/05/15 00:36:05;;;;;;;15.23;8.77;;;;;;;12.07;nan;-24154.13;4975607;28;20188;-69
2023/05/15 00:38:32;;;;;;;15.80;9.68;;;;;;;12.34;nan;-24161.59;4975032;28;20216;-70
2023/05/15 00:40:58;;;;;;;15.75;8.48;;;;;;;12.16;nan;-24156.66;4974578;28;20264;-69
2023/05/15 00:43:25;;;;;;;14.15;8.48;;;;;;;12.30;nan;-24160.59;4975615;28;20173;-69
2023/05/15 00:45:52;;;;;;;16.20;9.13;;;;;;;11.85;nan;-24147.94;4975383;28;20178;-69
2023/05/15 00:48:18;;;;;;;14.25;8.77;;;;;;;12.32;nan;-24161.16;4975086;28;20590;-69
2023/05/15 00:50:44;;;;;;;18.67;10.05;;;;;;;12.02;nan;-24152.72;4974642;28;20229;-70
2023/05/15 00:53:10;;;;;;;14.98;9.07;;;;;;;12.01;nan;-24152.44;4976061;28;20170;-69
2023/05/15 00:55:36;;;;;;;17.13;10.07;;;;;;;11.93;nan;-24150.19;4976385;28;20174;-69
2023/05/15 00:58:02;;;;;;;18.90;10.25;;;;;;;11.95;nan;-24150.75;4975678;28;20181;-69
2023/05/15 01:00:30;;;;;;;17.33;9.88;;;;;;;11.85;nan;-24147.94;4975565;28;20182;-69
2023/05/15 01:02:55;;;;;;;16.02;9.52;;;;;;;11.61;nan;-24141.31;4975329;28;20237;-70
2023/05/15 01:05:21;;;;;;;15.25;9.27;;;;;;;11.98;nan;-24151.59;4975253;28;20177;-69
2023/05/15 01:07:53;;;;;;;16.20;9.35;;;;;;;11.81;nan;-24146.81;4975389;28;20213;-70
2023/05/15 01:10:20;;;;;;;14.43;8.57;;;;;;;12.02;nan;-24152.56;4975173;28;20225;-70
2023/05/15 01:12:46;;;;;;;17.42;9.82;;;;;;;11.70;nan;-24143.84;4974912;28;20571;-70
2023/05/15 01:15:12;;;;;;;15.70;9.55;;;;;;;11.98;nan;-24151.59;4975080;28;20182;-70
2023/05/15 01:17:37;;;;;;;14.98;9.27;;;;;;;11.77;nan;-24145.69;4974658;28;20180;-69
2023/05/15 01:20:08;;;;;;;17.58;9.00;;;;;;;11.95;nan;-24150.88;4975253;28;20652;-70
2023/05/15 01:23:04;;;;;;;14.45;8.27;;;;;;;12.00;nan;-24152.16;4975203;28;20161;-69
2023/05/15 01:25:51;;;;;;;18.63;9.68;;;;;;;12.03;nan;-24153.00;4975149;28;20248;-69
2023/05/15 01:28:24;;;;;;;18.75;10.02;;;;;;;11.76;nan;-24145.41;4975086;28;20227;-69
2023/05/15 01:30:53;;;;;;;14.90;9.32;;;;;;;11.68;nan;-24143.28;4975001;28;20224;-70
2023/05/15 01:33:39;;;;;;;20.70;10.68;;;;;;;11.92;nan;-24149.91;4974789;28;20224;-70
2023/05/15 01:36:17;;;;;;;17.13;9.90;;;;;;;11.90;nan;-24149.34;4974688;28;20162;-70
2023/05/15 01:38:55;;;;;;;16.70;10.07;;;;;;;12.11;nan;-24155.25;4974987;28;20173;-69
2023/05/15 01:41:51;;;;;;;15.98;9.23;;;;;;;12.05;nan;-24153.41;4974655;28;20641;-69
2023/05/15 01:44:21;;;;;;;17.08;8.85;;;;;;;11.80;nan;-24146.66;4974810;28;20220;-69
2023/05/15 01:46:51;;;;;;;17.10;9.93;;;;;;;11.43;nan;-24136.38;4974430;28;20174;-70
2023/05/15 01:49:18;;;;;;;17.98;10.60;;;;;;;11.20;nan;-24129.88;4974647;28;20712;-70
2023/05/15 01:51:48;;;;;;;18.67;10.30;;;;;;;11.47;nan;-24137.34;4974376;28;20178;-69
2023/05/15 01:54:15;;;;;;;15.70;10.05;;;;;;;11.22;nan;-24130.31;4974277;28;20205;-70
2023/05/15 01:56:42;;;;;;;24.50;11.15;;;;;;;11.53;nan;-24139.19;4976521;28;20193;-70
2023/05/15 01:59:08;;;;;;;18.02;10.52;;;;;;;11.82;nan;-24147.09;4979783;28;20216;-69
2023/05/15 02:01:35;;;;;;;18.92;10.55;;;;;;;11.52;nan;-24138.78;4973505;28;20612;-70
2023/05/15 02:04:02;;;;;;;20.17;10.07;;;;;;;11.56;nan;-24139.75;4974167;28;20185;-69
2023/05/15 02:06:28;;;;;;;20.27;10.20;;;;;;;11.59;nan;-24140.59;4974080;28;20184;-70
2023/05/15 02:08:56;;;;;;;17.02;9.68;;;;;;;11.30;nan;-24132.72;4976264;28;20582;-70
2023/05/15 02:11:22;;;;;;;18.00;10.63;;;;;;;11.23;nan;-24130.59;4976030;28;20252;-69
2023/05/15 02:13:48;;;;;;;20.05;10.45;;;;;;;11.40;nan;-24135.53;4975913;28;20695;-70
2023/05/15 02:16:14;;;;;;;20.83;11.10;;;;;;;11.19;nan;-24129.47;4970333;28;20189;-69
2023/05/15 02:18:40;;;;;;;19.30;10.65;;;;;;;11.40;nan;-24135.38;4975039;28;20189;-70
2023/05/15 02:21:05;;;;;;;19.17;10.63;;;;;;;11.39;nan;-24135.25;4975085;28;20193;-69
2023/05/15 02:23:32;;;;;;;19.80;10.43;;;;;;;11.44;nan;-24136.66;4976031;28;20252;-69
2023/05/15 02:26:20;;;;;;;18.83;10.10;;;;;;;11.37;nan;-24134.69;4972616;28;20189;-69
2023/05/15 02:29:04;;;;;;;18.77;11.05;;;;;;;11.33;nan;-24133.41;4973636;28;20217;-69
2023/05/15 02:31:45;;;;;;;19.55;10.23;;;;;;;10.84;nan;-24119.75;4978460;28;20185;-69
2023/05/15 02:34:26;;;;;;;21.42;10.77;;;;;;;11.41;nan;-24135.81;4979108;28;20177;-70
2023/05/15 02:36:56;;;;;;;20.95;10.38;;;;;;;11.19;nan;-24129.47;4976988;28;20232;-69
2023/05/15 02:39:23;;;;;;;20.08;10.98;;;;;;;11.51;nan;-24138.63;4973517;28;20296;-69
2023/05/15 02:41:51;;;;;;;18.30;10.32;;;;;;;11.39;nan;-24135.25;4975547;28;20196;-70
2023/05/15 02:44:17;;;;;;;17.90;9.95;;;;;;;11.61;nan;-24141.31;4973437;28;20271;-69
2023/05/15 02:46:43;;;;;;;17.55;10.23;;;;;;;11.65;nan;-24142.44;4973374;28;20677;-69
2023/05/15 02:49:10;;;;;;;16.88;10.35;;;;;;;11.41;nan;-24135.81;4973041;28;20198;-69
2023/05/15 02:51:36;;;;;;;23.13;10.55;;;;;;;11.72;nan;-24144.25;4973601;28;20181;-70
2023/05/15 02:54:01;;;;;;;20.20;10.68;;;;;;;11.40;nan;-24135.53;4973497;28;20315;-69
2023/05/15 02:56:26;;;;;;;22.70;10.15;;;;;;;11.48;nan;-24137.63;4973419;28;20172;-70
2023/05/15 02:58:52;;;;;;;18.10;9.93;;;;;;;11.57;nan;-24140.03;4973324;28;20299;-69
2023/05/15 03:01:17;;;;;;;19.83;10.38;;;;;;;11.64;nan;-24142.16;4976955;28;20193;-69
2023/05/15 03:03:43;;;;;;;19.50;11.55;;;;;;;11.39;nan;-24135.25;4974524;28;20232;-70
2023/05/15 03:06:08;;;;;;;19.85;11.07;;;;;;;11.64;nan;-24142.00;4973160;28;20170;-70
2023/05/15 03:08:33;;;;;;;19.08;10.82;;;;;;;11.65;nan;-24142.28;4987964;28;20702;-70
2023/05/15 03:10:59;;;;;;;20.63;10.70;;;;;;;11.72;nan;-24144.25;4973161;28;20221;-69
2023/05/15 03:13:24;;;;;;;20.10;11.18;;;;;;;11.68;nan;-24143.13;4974644;28;20288;-70
2023/05/15 03:15:51;;;;;;;22.75;11.48;;;;;;;11.59;nan;-24140.59;4972674;28;20189;-71
2023/05/15 03:18:17;;;;;;;20.33;10.82;;;;;;;11.82;nan;-24147.22;4972626;28;20181;-69
2023/05/15 03:20:43;;;;;;;23.85;10.88;;;;;;;11.53;nan;-24139.19;4975102;28;20181;-69
2023/05/15 03:23:08;;;;;;;26.60;12.50;;;;;;;11.67;nan;-24142.84;4975152;28;20185;-69
2023/05/15 03:25:34;;;;;;;20.02;10.75;;;;;;;11.72;nan;-24144.25;4972981;28;20698;-70
2023/05/15 03:27:59;;;;;;;18.13;11.02;;;;;;;11.73;nan;-24144.56;4987796;28;20205;-69
2023/05/15 03:30:25;;;;;;;19.45;11.32;;;;;;;12.16;nan;-24156.66;4972888;28;20184;-69
2023/05/15 03:32:50;;;;;;;19.67;11.15;;;;;;;12.13;nan;-24155.81;4972162;28;20576;-70
2023/05/15 03:35:15;;;;;;;18.05;10.02;;;;;;;12.34;nan;-24161.59;4971907;28;20235;-69
2023/05/15 03:37:41;;;;;;;17.25;10.77;;;;;;;12.52;nan;-24166.66;4972979;28;20205;-69
2023/05/15 03:40:07;;;;;;;20.80;10.52;;;;;;;12.41;nan;-24163.56;4971942;28;20209;-70
2023/05/15 03:42:33;;;;;;;17.10;10.23;;;;;;;12.40;nan;-24163.41;4972573;28;20276;-70
2023/05/15 03:44:58;;;;;;;19.33;10.93;;;;;;;12.62;nan;-24169.31;4987477;28;20676;-69
2023/05/15 03:47:24;;;;;;;16.45;9.65;;;;;;;12.74;nan;-24172.84;4972208;28;20271;-69
2023/05/15 03:49:49;;;;;;;16.35;9.68;;;;;;;12.84;nan;-24175.50;4972516;28;20161;-70
2023/05/15 03:52:15;;;;;;;18.67;10.40;;;;;;;12.87;nan;-24176.22;4971209;28;20175;-69
2023/05/15 03:54:41;;;;;;;19.00;9.43;;;;;;;13.03;nan;-24180.84;4972780;28;20208;-69
2023/05/15 03:57:07;;;;;;;19.98;10.32;;;;;;;12.97;nan;-24179.16;4972424;28;20531;-69
2023/05/15 03:59:32;;;;;;;19.50;10.18;;;;;;;12.85;nan;-24175.78;4972338;28;20725;-70
2023/05/15 04:01:58;;;;;;;16.73;9.27;;;;;;;12.91;nan;-24177.47;4989064;28;20280;-69
2023/05/15 04:04:23;;;;;;;13.77;7.95;;;;;;;12.84;nan;-24175.50;4972658;28;20581;-71
2023/05/15 04:06:49;;;;;;;20.65;9.32;;;;;;;12.68;nan;-24171.16;4976827;28;20635;-69
2023/05/15 04:09:15;;;;;;;18.27;9.73;;;;;;;12.97;nan;-24179.03;4970724;28;20181;-70
2023/05/15 04:11:40;;;;;;;19.50;10.18;;;;;;;13.16;nan;-24184.38;4970361;28;20229;-69
2023/05/15 04:14:05;;;;;;;17.42;9.55;;;;;;;13.01;nan;-24180.28;4972036;28;20188;-67
2023/05/15 04:16:31;;;;;;;19.92;10.80;;;;;;;13.36;nan;-24189.84;4971697;28;20177;-68
2023/05/15 04:18:56;;;;;;;18.40;11.25;;;;;;;13.43;nan;-24191.94;4972386;28;20227;-67
2023/05/15 04:21:21;;;;;;;24.08;11.75;;;;;;;13.69;nan;-24199.25;4972522;28;20220;-68
2023/05/15 04:23:47;;;;;;;20.48;11.23;;;;;;;15.06;nan;-24237.13;4972463;28;20261;-67
2023/05/15 04:26:12;;;;;;;20.73;10.93;;;;;;;15.73;nan;-20396.31;4974701;28;20181;-68
2023/05/15 04:28:38;;;;;;;18.10;9.90;;;;;;;16.21;nan;-12994.34;4975582;28;20270;-67
2023/05/15 04:31:03;;;;;;;17.38;9.57;;;;;;;16.16;nan;-11703.19;4975924;28;20562;-69
2023/05/15 04:33:28;;;;;;;16.33;9.80;;;;;;;15.75;nan;-13957.03;4980679;28;20200;-68
2023/05/15 04:35:54;;;;;;;17.48;8.70;;;;;;;15.39;nan;-17816.13;4975805;28;20185;-68
2023/05/15 04:38:19;;;;;;;14.40;8.65;;;;;;;15.21;nan;-20706.41;4974146;28;20190;-68
2023/05/15 04:40:45;;;;;;;16.30;9.32;;;;;;;14.96;nan;-20700.94;4990198;28;20178;-68
2023/05/15 04:43:10;;;;;;;16.08;8.85;;;;;;;14.54;nan;-21975.56;4975442;28;20185;-69
2023/05/15 04:45:36;;;;;;;16.05;9.13;;;;;;;14.53;nan;-22616.88;4975703;28;20173;-69
2023/05/15 04:48:01;;;;;;;15.75;8.85;;;;;;;14.53;nan;-23258.56;4974781;28;20758;-69
2023/05/15 04:50:27;;;;;;;15.63;8.68;;;;;;;14.75;nan;-23905.78;4975453;28;20169;-69
2023/05/15 04:52:53;;;;;;;15.70;9.40;;;;;;;14.48;nan;-24219.13;4975251;28;20247;-68
2023/05/15 04:55:18;;;;;;;15.15;9.07;;;;;;;14.44;nan;-24220.03;4975511;28;20166;-68
2023/05/15 04:57:46;;;;;;;16.00;9.43;;;;;;;14.82;nan;-24228.66;4978884;28;20182;-69
2023/05/15 05:00:13;;;;;;;17.73;9.55;;;;;;;14.64;nan;-24223.63;4983385;28;20300;-70
2023/05/15 05:02:39;;;;;;;15.32;8.82;;;;;;;14.51;nan;-24219.97;4980679;28;20189;-69
2023/05/15 05:05:06;;;;;;;16.00;9.48;;;;;;;14.43;nan;-24217.88;4991246;28;20231;-69
2023/05/15 05:07:31;;;;;;;16.35;9.18;;;;;;;14.44;nan;-24218.00;4994667;28;20283;-69
2023/05/15 05:09:57;;;;;;;17.83;9.85;;;;;;;14.53;nan;-24220.66;4995255;28;20204;-69
2023/05/15 05:12:22;;;;;;;17.20;9.60;;;;;;;14.30;nan;-24214.06;4994538;28;20244;-69
2023/05/15 05:14:48;;;;;;;17.75;9.75;;;;;;;14.49;nan;-24221.28;4994240;28;20185;-68
2023/05/15 05:17:13;;;;;;;15.85;9.25;;;;;;;14.80;nan;-24228.09;4992400;28;20683;-68
2023/05/15 05:19:38;;;;;;;19.40;10.18;;;;;;;14.93;nan;-24231.59;4973885;28;20178;-69
2023/05/15 05:22:04;;;;;;;16.00;9.35;;;;;;;15.03;nan;-23913.63;4974115;28;20262;-68
2023/05/15 05:24:30;;;;;;;19.75;9.98;;;;;;;15.08;nan;-23272.88;4974564;28;20185;-68
2023/05/15 05:26:57;;;;;;;17.95;9.43;;;;;;;15.59;nan;-22643.56;4974780;28;20173;-68
2023/05/15 05:29:23;;;;;;;17.27;8.68;;;;;;;15.61;nan;-17819.88;4973003;28;20216;-68
2023/05/15 05:31:48;;;;;;;16.50;8.77;;;;;;;15.72;nan;-15567.72;4974475;28;20216;-70
2023/05/15 05:34:13;;;;;;;14.27;8.75;;;;;;;15.92;nan;-11378.78;4974156;28;20640;-69
2023/05/15 05:36:39;;;;;;;16.30;8.45;;;;;;;15.77;nan;-10409.88;4973994;28;20625;-70
2023/05/15 05:39:05;;;;;;;19.20;8.32;;;;;;;15.57;nan;-11053.84;4974319;28;20181;-70
2023/05/15 05:41:30;;;;;;;15.20;9.32;;;;;;;15.73;nan;-12345.00;4974312;28;20269;-70
2023/05/15 05:43:55;;;;;;;13.73;8.25;;;;;;;16.04;nan;-13315.31;4974511;28;20208;-70
2023/05/15 05:46:21;;;;;;;14.27;7.90;;;;;;;16.09;nan;-12025.34;4974105;28;20272;-69
2023/05/15 05:48:46;;;;;;;16.00;8.63;;;;;;;16.38;nan;-12027.63;4973865;28;20739;-71
2023/05/15 05:51:11;;;;;;;18.65;9.40;;;;;;;16.54;nan;-9444.66;4974444;28;20200;-69
2023/05/15 05:53:37;;;;;;;18.60;9.15;;;;;;;16.35;nan;-3947.25;4974078;28;20207;-70
2023/05/15 05:56:02;;;;;;;14.30;8.13;;;;;;;16.15;nan;-5565.41;4972821;28;20674;-69
2023/05/15 05:58:28;;;;;;;16.75;8.57;;;;;;;16.11;nan;-4918.81;4974380;28;20240;-69
2023/05/15 06:00:54;;;;;;;16.98;9.07;;;;;;;16.46;nan;-3623.03;4972681;28;20169;-68
2023/05/15 06:03:20;;;;;;;15.05;8.68;;;;;;;16.16;nan;-4918.63;4973554;28;20177;-69
2023/05/15 06:05:45;;;;;;;16.38;8.52;;;;;;;16.21;nan;-4918.44;4972115;28;20177;-69
2023/05/15 06:08:11;;;;;;;18.27;8.73;;;;;;;15.68;nan;-8150.31;4974130;28;20236;-71
2023/05/15 06:10:36;;;;;;;16.58;9.13;;;;;;;16.13;nan;-5888.75;4972845;28;20247;-70
2023/05/15 06:13:01;;;;;;;17.67;9.15;;;;;;;16.05;nan;-7827.91;4974311;28;20169;-69
2023/05/15 06:15:27;;;;;;;18.20;9.10;;;;;;;16.20;nan;-9443.38;4974253;28;20276;-70
2023/05/15 06:17:52;;;;;;;14.82;8.82;;;;;;;16.09;nan;-9765.88;4974024;28;20201;-71
2023/05/15 06:20:18;;;;;;;24.02;10.02;;;;;;;16.55;nan;-11383.09;4974485;28;20185;-71
2023/05/15 06:22:43;;;;;;;16.85;8.98;;;;;;;16.32;nan;-9120.78;4989082;28;20170;-71
2023/05/15 06:25:13;;;;;;;17.67;9.98;;;;;;;16.28;nan;-6858.44;4973931;28;20185;-70
2023/05/15 06:27:39;;;;;;;22.08;9.27;;;;;;;16.17;nan;-9120.28;4989017;28;20200;-70
2023/05/15 06:30:06;;;;;;;19.52;9.60;;;;;;;16.09;nan;-10411.63;4973809;28;20274;-71
2023/05/15 06:32:32;;;;;;;18.33;9.50;;;;;;;16.44;nan;-11705.28;4974275;28;20178;-71
2023/05/15 06:34:58;;;;;;;15.45;9.27;;;;;;;16.10;nan;-12993.34;4974007;28;20201;-70
2023/05/15 06:37:23;;;;;;;18.10;9.60;;;;;;;16.51;nan;-12028.66;4974028;28;20661;-71
2023/05/15 06:39:49;;;;;;;16.60;9.55;;;;;;;16.34;nan;-12672.91;4973920;28;20173;-71
2023/05/15 06:42:14;;;;;;;15.82;9.20;;;;;;;16.42;nan;-8474.75;4973749;28;20527;-70
2023/05/15 06:44:40;;;;;;;16.25;9.15;;;;;;;16.30;nan;-8797.63;4975730;28;20181;-70
2023/05/15 06:47:05;;;;;;;15.15;9.27;;;;;;;16.10;nan;-10088.78;4973803;28;20201;-69
2023/05/15 06:49:31;;;;;;;15.57;9.82;;;;;;;16.15;nan;-9766.16;4973733;28;20189;-71
2023/05/15 06:51:56;;;;;;;18.23;10.20;;;;;;;16.12;nan;-8797.13;4973308;28;20177;-71
2023/05/15 06:54:21;;;;;;;17.98;9.77;;;;;;;15.95;nan;-9119.56;4973545;28;20303;-70
2023/05/15 06:56:47;;;;;;;18.65;10.65;;;;;;;15.89;nan;-9119.41;4988236;28;20685;-70
2023/05/15 06:59:12;;;;;;;20.85;11.10;;;;;;;16.03;nan;-9442.75;4973383;28;20177;-69
2023/05/15 07:01:38;;;;;;;15.45;8.98;;;;;;;15.77;nan;-9441.75;4973507;28;20691;-71
2023/05/15 07:04:04;;;;;;;21.80;10.80;;;;;;;15.40;nan;-10407.94;4973313;28;20223;-71
2023/05/15 07:06:30;;;;;;;20.33;10.50;;;;;;;15.49;nan;-10085.88;4988567;28;20188;-70
2023/05/15 07:08:59;;;;;;;17.48;9.77;;;;;;;15.53;nan;-9763.47;4988113;28;20216;-69
2023/05/15 07:11:25;;;;;;;21.00;10.60;;;;;;;16.04;nan;-10088.50;4987787;28;20605;-69
2023/05/15 07:13:53;;;;;;;24.00;10.18;;;;;;;16.03;nan;-10734.06;4987771;28;20181;-70
2023/05/15 07:16:19;;;;;;;17.85;10.68;;;;;;;16.18;nan;-12348.81;4974178;28;20178;-69
2023/05/15 07:18:44;;;;;;;21.00;9.82;;;;;;;16.07;nan;-7181.69;4973615;28;20297;-70
2023/05/15 07:21:10;;;;;;;17.38;10.25;;;;;;;15.91;nan;-5889.19;4988359;28;20180;-71
2023/05/15 07:23:35;;;;;;;18.20;10.32;;;;;;;15.97;nan;-5889.09;4973038;28;20629;-69
2023/05/15 07:26:01;;;;;;;18.05;9.45;;;;;;;15.85;nan;-5566.13;4987944;28;20668;-70
2023/05/15 07:28:26;;;;;;;18.00;9.20;;;;;;;15.85;nan;-6858.63;4971753;28;20264;-69
2023/05/15 07:30:52;;;;;;;18.35;9.60;;;;;;;16.09;nan;-8797.03;4973305;28;20276;-69
2023/05/15 07:33:17;;;;;;;17.75;9.98;;;;;;;16.21;nan;-10412.25;4973028;28;20804;-70
2023/05/15 07:35:43;;;;;;;18.33;9.88;;;;;;;16.28;nan;-10735.53;4987883;28;20240;-70
2023/05/15 07:38:08;;;;;;;22.17;10.65;;;;;;;16.65;nan;-10414.59;4973216;28;20189;-70
2023/05/15 07:40:33;;;;;;;18.83;10.02;;;;;;;16.68;nan;-9121.94;4972676;28;20260;-70
2023/05/15 07:42:59;;;;;;;15.18;9.00;;;;;;;16.99;nan;-7828.94;4972331;28;20178;-69
2023/05/15 07:45:24;;;;;;;17.52;9.82;;;;;;;17.12;nan;-5562.94;4973031;28;20310;-70
2023/05/15 07:47:50;;;;;;;19.70;9.73;;;;;;;17.21;nan;-6534.25;4973166;28;20242;-70
2023/05/15 07:50:16;;;;;;;16.83;9.38;;;;;;;16.98;nan;-8475.97;4987586;28;20184;-70
2023/05/15 07:52:42;;;;;;;13.75;8.50;;;;;;;17.19;nan;-3618.84;4973141;28;20177;-70
2023/05/15 07:55:09;;;;;;;16.95;7.88;;;;;;;17.11;nan;1569.34;4972684;28;20173;-70
2023/05/15 07:57:35;;;;;;;15.77;8.57;;;;;;;16.94;nan;6112.59;4972390;28;20185;-70
2023/05/15 08:00:09;;;;;;;13.27;8.05;;;;;;;17.12;nan;9042.75;4974301;28;20170;-70
2023/05/15 08:02:34;;;;;;;14.00;8.05;;;;;;;16.77;nan;10009.22;4976580;28;20293;-71
2023/05/15 08:05:00;;;;;;;12.73;7.60;;;;;;;17.10;nan;13925.22;4976535;28;20276;-70
2023/05/15 08:07:25;;;;;;;13.63;7.63;;;;;;;17.17;nan;15556.88;4976273;28;20193;-70
2023/05/15 08:09:50;;;;;;;13.55;7.85;;;;;;;17.22;nan;13277.78;4976325;28;20169;-70
2023/05/15 08:12:19;;;;;;;16.63;9.30;;;;;;;17.16;nan;4167.69;4976491;28;20192;-71
2023/05/15 08:14:53;;;;;;;14.35;8.27;;;;;;;17.29;nan;-699.81;4976434;28;20185;-72
2023/05/15 08:17:19;;;;;;;14.88;8.77;;;;;;;17.47;nan;-2968.75;4980213;28;20185;-69
2023/05/15 08:19:45;;;;;;;13.27;8.50;;;;;;;17.57;nan;-2643.69;4976507;28;20184;-71
2023/05/15 08:22:10;;;;;;;17.98;8.40;;;;;;;17.44;nan;-2320.31;4976466;28;20185;-70
2023/05/15 08:24:36;;;;;;;16.58;8.60;;;;;;;17.60;nan;-3940.78;4976118;28;20173;-70
2023/05/15 08:27:04;;;;;;;15.55;8.60;;;;;;;17.53;nan;-4589.56;4976297;28;20181;-70
2023/05/15 08:29:29;;;;;;;12.15;7.85;;;;;;;17.69;nan;-3616.03;4976410;28;20177;-70
2023/05/15 08:31:54;;;;;;;14.70;8.65;;;;;;;17.74;nan;-1344.34;4976343;28;20180;-71
2023/05/15 08:34:20;;;;;;;15.88;9.10;;;;;;;17.84;nan;-1018.78;4976157;28;20239;-70
2023/05/15 08:36:45;;;;;;;13.43;8.13;;;;;;;17.97;nan;-1017.47;4976172;28;20181;-71
2023/05/15 08:39:11;;;;;;;16.67;8.68;;;;;;;17.90;nan;-1342.81;4975832;28;20185;-70
2023/05/15 08:42:02;;;;;;;16.85;8.88;;;;;;;18.09;nan;933.16;4975795;28;20170;-70
2023/05/15 08:44:27;;;;;;;12.93;7.63;;;;;;;18.02;nan;2882.59;4975779;28;20268;-71
2023/05/15 08:46:53;;;;;;;16.15;8.85;;;;;;;18.18;nan;2885.22;4975807;28;20608;-70
2023/05/15 08:49:56;;;;;;;13.63;8.15;;;;;;;18.30;nan;4514.13;4975632;28;20699;-70
2023/05/15 08:52:22;;;;;;;14.95;8.35;;;;;;;18.13;nan;7114.81;4990948;28;20629;-70
2023/05/15 08:54:49;;;;;;;12.43;7.82;;;;;;;18.00;nan;7112.00;4990535;28;20200;-70
2023/05/15 08:57:16;;;;;;;15.15;8.55;;;;;;;17.84;nan;6782.69;4975855;28;20173;-70
2023/05/15 08:59:42;;;;;;;16.17;8.55;;;;;;;17.99;nan;6786.09;4975588;28;20177;-70
2023/05/15 09:02:08;;;;;;;17.58;8.55;;;;;;;17.94;nan;4182.06;4975388;28;20177;-70
2023/05/15 09:04:33;;;;;;;15.82;8.43;;;;;;;18.22;nan;6791.34;4975851;28;20170;-70
2023/05/15 09:07:00;;;;;;;16.42;9.07;;;;;;;18.40;nan;12664.13;4975435;28;20265;-72
2023/05/15 09:09:28;;;;;;;15.85;8.65;;;;;;;18.42;nan;19197.94;4976856;28;20176;-70
2023/05/15 09:11:54;;;;;;;15.57;8.75;;;;;;;18.48;nan;12340.19;4459914;28;20959;-74
2023/05/15 09:14:20;;;;;;;14.20;8.35;;;;;;;18.68;nan;14958.97;4295926;28;21071;-71
2023/05/15 09:16:49;;;;;;;17.30;9.07;;;;;;;18.59;nan;20186.44;4391910;28;20220;-70
2023/05/15 09:19:18;;;;;;;12.75;8.25;;;;;;;18.86;nan;27078.94;4975068;28;20229;-71
2023/05/15 09:21:43;;;;;;;13.43;8.57;;;;;;;19.29;nan;34660.69;4974734;28;20575;-70
2023/05/15 09:24:23;;;;;;;16.73;8.85;;;;;;;19.49;nan;35003.19;4974895;28;20177;-71
2023/05/15 09:27:03;;;;;;;15.45;8.88;;;;;;;19.58;nan;36325.91;4974658;28;20185;-70
2023/05/15 09:29:33;;;;;;;14.02;8.90;;;;;;;19.25;nan;39984.34;4974815;28;20739;-71
2023/05/15 09:32:06;;;;;;;14.05;8.70;;;;;;;19.33;nan;40667.25;4974786;28;20189;-71
2023/05/15 09:34:37;;;;;;;15.00;8.98;;;;;;;18.93;nan;37488.22;4974738;28;20720;-72
2023/05/15 09:37:05;;;;;;;15.95;8.18;;;;;;;19.14;nan;34321.19;4974872;28;20551;-71
2023/05/15 09:39:31;;;;;;;13.43;7.88;;;;;;;19.11;nan;30375.81;4989337;28;20173;-70
2023/05/15 09:42:07;;;;;;;14.55;8.70;;;;;;;18.78;nan;21831.47;4973309;28;20220;-71
2023/05/15 09:44:35;;;;;;;14.95;8.93;;;;;;;18.66;nan;17899.72;4989437;28;20657;-70
2023/05/15 09:47:04;;;;;;;12.35;8.40;;;;;;;18.54;nan;18876.09;4974641;28;20177;-70
2023/05/15 09:49:30;;;;;;;16.75;8.57;;;;;;;18.40;nan;20832.31;4974313;28;20525;-70
2023/05/15 09:51:59;;;;;;;17.33;8.65;;;;;;;18.38;nan;20831.19;4974653;28;20216;-71
2023/05/15 09:54:29;;;;;;;15.15;9.70;;;;;;;18.34;nan;21811.00;4974525;28;20169;-71
2023/05/15 09:56:55;;;;;;;15.65;9.50;;;;;;;18.47;nan;21162.50;4974839;28;20244;-71
2023/05/15 09:59:20;;;;;;;16.90;9.10;;;;;;;18.26;nan;24752.91;4974688;28;20217;-73
2023/05/15 10:01:49;;;;;;;16.50;8.98;;;;;;;18.66;nan;27723.50;4989529;28;20688;-70
2023/05/15 10:04:15;;;;;;;15.73;9.02;;;;;;;18.52;nan;29355.53;4974616;28;20256;-70
2023/05/15 10:06:47;;;;;;;14.10;8.32;;;;;;;18.60;nan;28048.00;4988950;28;20216;-70
2023/05/15 10:09:13;;;;;;;16.20;9.85;;;;;;;19.12;nan;28734.28;4974296;28;20205;-70
2023/05/15 10:11:52;;;;;;;17.45;9.18;;;;;;;19.03;nan;25776.44;4973990;28;20236;-71
2023/05/15 10:14:18;;;;;;;15.18;9.10;;;;;;;19.17;nan;28409.22;4975075;28;20174;-71
2023/05/15 10:16:44;;;;;;;17.77;9.18;;;;;;;19.09;nan;27748.16;4978451;28;20181;-71
2023/05/15 10:19:11;;;;;;;14.35;9.13;;;;;;;19.52;nan;34346.75;4973729;28;20185;-71
2023/05/15 10:21:39;;;;;;;14.57;8.95;;;;;;;19.50;nan;39946.69;4973659;28;20200;-71
2023/05/15 10:24:06;;;;;;;15.48;9.63;;;;;;;19.79;nan;41202.97;4973374;28;20174;-70
2023/05/15 10:26:42;;;;;;;18.02;9.43;;;;;;;19.94;nan;46327.81;4973682;28;20185;-71
2023/05/15 10:29:09;;;;;;;15.18;9.18;;;;;;;19.73;nan;45313.34;4973402;28;20687;-71
2023/05/15 10:31:35;;;;;;;20.13;9.93;;;;;;;19.87;nan;44933.19;4973696;28;20235;-70
2023/05/15 10:34:02;;;;;;;16.30;9.65;;;;;;;19.87;nan;48312.50;4973649;28;20260;-70
2023/05/15 10:36:28;;;;;;;14.80;9.05;;;;;;;20.04;nan;49813.91;4973535;28;20679;-71
2023/05/15 10:38:53;;;;;;;16.75;9.88;;;;;;;19.97;nan;50644.31;4988777;28;20606;-71
2023/05/15 10:41:21;;;;;;;18.60;10.80;;;;;;;20.29;nan;51156.34;4973329;28;20177;-73
2023/05/15 10:43:48;;;;;;;14.50;9.00;;;;;;;20.60;nan;55188.72;4972991;28;20170;-72
2023/05/15 10:46:15;;;;;;;15.73;9.70;;;;;;;21.13;nan;57185.66;4973487;28;20196;-72
2023/05/15 10:48:41;;;;;;;17.13;10.02;;;;;;;21.09;nan;58160.28;4973453;28;20201;-71
2023/05/15 10:51:17;;;;;;;19.33;10.90;;;;;;;21.47;nan;58637.00;4973148;28;20178;-72
2023/05/15 10:53:43;;;;;;;18.48;9.88;;;;;;;21.54;nan;59143.38;4973536;28;20176;-71
2023/05/15 10:56:15;;;;;;;18.30;10.05;;;;;;;20.95;nan;59146.47;4973176;28;20189;-70
2023/05/15 10:58:46;;;;;;;16.83;10.43;;;;;;;21.27;nan;59645.81;4973148;28;20169;-71
2023/05/15 11:01:32;;;;;;;18.25;10.10;;;;;;;20.96;nan;59651.19;4973287;28;20181;-69
2023/05/15 11:04:05;;;;;;;16.90;10.50;;;;;;;21.57;nan;59761.94;4972850;28;20178;-70
2023/05/15 11:06:31;;;;;;;18.02;10.75;;;;;;;21.06;nan;59706.88;4972955;28;20178;-69
2023/05/15 11:09:25;;;;;;;17.17;10.07;;;;;;;21.14;nan;59889.69;4972854;28;20212;-70
2023/05/15 11:11:51;;;;;;;20.25;10.90;;;;;;;21.15;nan;60147.38;4974190;28;20228;-73
2023/05/15 11:14:20;;;;;;;16.67;10.55;;;;;;;21.10;nan;60015.09;4973026;28;20177;-71
2023/05/15 11:16:52;;;;;;;17.73;10.43;;;;;;;21.36;nan;59985.63;4974372;28;20209;-72
2023/05/15 11:19:34;;;;;;;17.17;9.85;;;;;;;21.42;nan;60085.78;4973159;28;20254;-71
2023/05/15 11:22:01;;;;;;;16.83;9.70;;;;;;;21.41;nan;59903.34;4973012;28;20161;-71
2023/05/15 11:24:27;;;;;;;17.50;10.45;;;;;;;21.49;nan;60286.41;4973100;28;20243;-70
2023/05/15 11:27:01;;;;;;;17.42;10.43;;;;;;;21.22;nan;60407.09;4972946;28;20223;-70
2023/05/15 11:29:26;;;;;;;17.30;9.80;;;;;;;20.56;nan;60352.97;4972766;28;20547;-71
2023/05/15 11:31:52;;;;;;;20.55;11.25;;;;;;;20.76;nan;60237.09;4972521;28;20184;-71
2023/05/15 11:34:32;;;;;;;18.17;10.38;;;;;;;20.66;nan;59662.84;4972371;28;20189;-71
2023/05/15 11:37:01;;;;;;;19.88;10.32;;;;;;;20.61;nan;59431.63;4971650;28;20355;-71